createdAt,value
2018-12-03T00:00:54.633Z,0.00
2018-12-03T00:01:54.621Z,0.00
2018-12-03T00:02:54.611Z,0.00
2018-12-03T00:03:54.600Z,0.00
2018-12-03T00:04:54.587Z,0.00
2018-12-03T00:05:54.682Z,0.00
2018-12-03T00:06:54.564Z,0.00
2018-12-03T00:07:54.567Z,0.00
2018-12-03T00:08:54.546Z,0.00
2018-12-03T00:09:54.533Z,0.00
2018-12-03T00:10:54.523Z,0.00
2018-12-03T00:11:54.613Z,0.00
2018-12-03T00:12:54.501Z,0.00
2018-12-03T00:13:54.490Z,0.00
2018-12-03T00:14:54.480Z,0.00
2018-12-03T00:15:54.467Z,0.00
2018-12-03T00:16:54.459Z,0.00
2018-12-03T00:17:55.753Z,0.00
2018-12-03T00:18:54.442Z,0.00
2018-12-03T00:19:54.430Z,0.00
2018-12-03T00:20:54.413Z,0.00
2018-12-03T00:21:54.407Z,0.00
2018-12-03T00:22:54.392Z,0.00
2018-12-03T00:23:54.485Z,0.00
2018-12-03T00:24:54.371Z,0.00
2018-12-03T00:25:54.360Z,0.00
2018-12-03T00:26:54.349Z,0.00
2018-12-03T00:27:54.344Z,0.00
2018-12-03T00:28:54.328Z,0.00
2018-12-03T00:29:54.444Z,0.00
2018-12-03T00:30:54.310Z,0.00
2018-12-03T00:31:54.295Z,0.00
2018-12-03T00:32:54.294Z,0.00
2018-12-03T00:33:54.273Z,0.00
2018-12-03T00:34:54.262Z,0.00
2018-12-03T00:35:54.436Z,0.00
2018-12-03T00:36:54.241Z,0.00
2018-12-03T00:37:54.246Z,0.00
2018-12-03T00:38:54.224Z,0.00
2018-12-03T00:39:54.218Z,0.00
2018-12-03T00:40:54.202Z,0.00
2018-12-03T00:41:54.302Z,0.00
2018-12-03T00:42:54.218Z,0.00
2018-12-03T00:43:54.169Z,0.00
2018-12-03T00:44:54.955Z,0.00
2018-12-03T00:45:54.176Z,0.00
2018-12-03T00:46:54.160Z,0.00
2018-12-03T00:47:54.241Z,0.00
2018-12-03T00:48:54.115Z,0.00
2018-12-03T00:49:54.813Z,0.00
2018-12-03T00:50:54.099Z,0.00
2018-12-03T00:51:54.084Z,0.00
2018-12-03T00:52:54.114Z,0.00
2018-12-03T00:53:54.375Z,0.00
2018-12-03T00:54:54.051Z,0.00
2018-12-03T00:55:54.045Z,0.00
2018-12-03T00:56:54.815Z,0.00
2018-12-03T00:57:54.019Z,0.00
2018-12-03T00:58:54.016Z,0.00
2018-12-03T00:59:54.181Z,0.00
2018-12-03T01:00:54.004Z,0.00
2018-12-03T01:01:54.815Z,0.00
2018-12-03T01:02:53.978Z,0.00
2018-12-03T01:03:53.962Z,0.00
2018-12-03T01:04:53.945Z,0.00
2018-12-03T01:05:54.815Z,0.00
2018-12-03T01:06:53.944Z,0.00
2018-12-03T01:07:53.912Z,0.00
2018-12-03T01:08:53.908Z,0.00
2018-12-03T01:09:53.915Z,0.00
2018-12-03T01:10:53.892Z,0.00
2018-12-03T01:11:54.008Z,0.00
2018-12-03T01:12:53.869Z,0.00
2018-12-03T01:13:53.859Z,0.00
2018-12-03T01:14:53.849Z,0.00
2018-12-03T01:15:53.834Z,0.00
2018-12-03T01:16:53.829Z,0.00
2018-12-03T01:17:55.819Z,0.00
2018-12-03T01:18:53.801Z,0.00
2018-12-03T01:19:53.788Z,0.00
2018-12-03T01:20:53.784Z,0.00
2018-12-03T01:21:53.762Z,0.00
2018-12-03T01:22:53.750Z,0.00
2018-12-03T01:23:53.843Z,0.00
2018-12-03T01:24:53.728Z,0.00
2018-12-03T01:25:53.717Z,0.00
2018-12-03T01:26:53.709Z,0.00
2018-12-03T01:27:53.698Z,0.00
2018-12-03T01:28:53.686Z,0.00
2018-12-03T01:29:54.101Z,0.00
2018-12-03T01:30:53.662Z,0.00
2018-12-03T01:31:53.651Z,0.00
2018-12-03T01:32:53.639Z,0.00
2018-12-03T01:33:53.628Z,0.00
2018-12-03T01:34:53.617Z,0.00
2018-12-03T01:35:53.778Z,0.00
2018-12-03T01:36:53.596Z,0.00
2018-12-03T01:37:53.588Z,0.00
2018-12-03T01:38:53.574Z,0.00
2018-12-03T01:39:53.561Z,0.00
2018-12-03T01:40:53.552Z,0.00
2018-12-03T01:41:53.658Z,0.00
2018-12-03T01:42:53.533Z,0.00
2018-12-03T01:43:53.520Z,0.00
2018-12-03T01:44:53.511Z,0.00
2018-12-03T01:45:53.499Z,0.00
2018-12-03T01:46:53.487Z,0.00
2018-12-03T01:47:53.587Z,0.00
2018-12-03T01:48:53.465Z,0.00
2018-12-03T01:49:53.466Z,0.00
2018-12-03T01:50:53.444Z,0.00
2018-12-03T01:51:53.433Z,0.00
2018-12-03T01:52:53.422Z,0.00
2018-12-03T01:53:53.576Z,0.00
2018-12-03T01:54:53.400Z,0.00
2018-12-03T01:55:53.395Z,0.00
2018-12-03T01:56:53.379Z,0.00
2018-12-03T01:57:53.369Z,0.00
2018-12-03T01:58:53.366Z,0.00
2018-12-03T01:59:53.455Z,0.00
2018-12-03T02:00:53.347Z,0.00
2018-12-03T02:01:53.338Z,0.00
2018-12-03T02:02:53.321Z,0.00
2018-12-03T02:03:53.309Z,0.00
2018-12-03T02:04:53.299Z,0.00
2018-12-03T02:05:53.415Z,0.00
2018-12-03T02:06:53.285Z,0.00
2018-12-03T02:07:53.263Z,0.00
2018-12-03T02:08:53.253Z,0.00
2018-12-03T02:09:53.244Z,0.00
2018-12-03T02:10:53.228Z,0.00
2018-12-03T02:11:53.404Z,0.00
2018-12-03T02:12:53.208Z,0.00
2018-12-03T02:13:53.200Z,0.00
2018-12-03T02:14:53.199Z,0.00
2018-12-03T02:15:53.179Z,0.00
2018-12-03T02:16:53.168Z,0.00
2018-12-03T02:17:53.428Z,0.00
2018-12-03T02:18:53.146Z,0.00
2018-12-03T02:19:53.133Z,0.00
2018-12-03T02:20:53.122Z,0.00
2018-12-03T02:21:53.114Z,0.00
2018-12-03T02:22:53.106Z,0.00
2018-12-03T02:23:53.189Z,0.00
2018-12-03T02:24:53.080Z,0.00
2018-12-03T02:25:53.920Z,0.00
2018-12-03T02:26:53.060Z,0.00
2018-12-03T02:27:53.048Z,0.00
2018-12-03T02:28:53.038Z,0.00
2018-12-03T02:29:53.123Z,0.00
2018-12-03T02:30:53.016Z,0.00
2018-12-03T02:31:53.001Z,0.00
2018-12-03T02:32:52.989Z,0.00
2018-12-03T02:33:52.984Z,0.00
2018-12-03T02:34:52.969Z,0.00
2018-12-03T02:35:53.174Z,0.00
2018-12-03T02:36:52.956Z,0.00
2018-12-03T02:37:52.943Z,0.00
2018-12-03T02:38:52.934Z,0.00
2018-12-03T02:39:52.925Z,0.00
2018-12-03T02:40:52.906Z,0.00
2018-12-03T02:41:53.024Z,0.00
2018-12-03T02:42:52.886Z,0.00
2018-12-03T02:43:52.876Z,0.00
2018-12-03T02:44:52.865Z,0.00
2018-12-03T02:45:52.884Z,0.00
2018-12-03T02:46:52.844Z,0.00
2018-12-03T02:47:52.957Z,0.00
2018-12-03T02:48:52.822Z,0.00
2018-12-03T02:49:52.817Z,0.00
2018-12-03T02:50:52.805Z,0.00
2018-12-03T02:51:52.797Z,0.00
2018-12-03T02:52:52.783Z,0.00
2018-12-03T02:53:52.941Z,0.00
2018-12-03T02:54:52.756Z,0.00
2018-12-03T02:55:52.749Z,0.00
2018-12-03T02:56:52.735Z,0.00
2018-12-03T02:57:52.728Z,0.00
2018-12-03T02:58:52.716Z,0.00
2018-12-03T02:59:52.872Z,0.00
2018-12-03T03:00:52.697Z,0.00
2018-12-03T03:01:52.682Z,0.00
2018-12-03T03:02:52.670Z,0.00
2018-12-03T03:03:52.661Z,0.00
2018-12-03T03:04:52.645Z,0.00
2018-12-03T03:05:52.746Z,0.00
2018-12-03T03:06:52.628Z,0.00
2018-12-03T03:07:52.617Z,0.00
2018-12-03T03:08:52.607Z,0.00
2018-12-03T03:09:52.596Z,0.00
2018-12-03T03:10:52.584Z,0.00
2018-12-03T03:11:52.711Z,0.00
2018-12-03T03:12:52.570Z,0.00
2018-12-03T03:13:52.552Z,0.00
2018-12-03T03:14:52.542Z,0.00
2018-12-03T03:15:52.535Z,0.00
2018-12-03T03:16:52.521Z,0.00
2018-12-03T03:17:52.799Z,0.00
2018-12-03T03:18:52.498Z,0.00
2018-12-03T03:19:52.487Z,0.00
2018-12-03T03:20:52.475Z,0.00
2018-12-03T03:21:52.469Z,0.00
2018-12-03T03:22:52.460Z,0.00
2018-12-03T03:23:52.546Z,0.00
2018-12-03T03:24:52.434Z,0.00
2018-12-03T03:25:52.422Z,0.00
2018-12-03T03:26:52.404Z,0.00
2018-12-03T03:27:52.403Z,0.00
2018-12-03T03:28:52.388Z,0.00
2018-12-03T03:29:52.487Z,0.00
2018-12-03T03:30:52.385Z,0.00
2018-12-03T03:31:52.374Z,0.00
2018-12-03T03:32:52.371Z,0.00
2018-12-03T03:33:52.337Z,0.00
2018-12-03T03:34:52.324Z,0.00
2018-12-03T03:35:52.617Z,0.00
2018-12-03T03:36:52.303Z,0.00
2018-12-03T03:37:52.290Z,0.00
2018-12-03T03:38:52.281Z,0.00
2018-12-03T03:39:52.272Z,0.00
2018-12-03T03:40:52.257Z,0.00
2018-12-03T03:41:52.383Z,0.00
2018-12-03T03:42:52.235Z,0.00
2018-12-03T03:43:52.227Z,0.00
2018-12-03T03:44:52.214Z,0.00
2018-12-03T03:45:52.202Z,0.00
2018-12-03T03:46:52.196Z,0.00
2018-12-03T03:47:52.279Z,0.00
2018-12-03T03:48:52.170Z,0.00
2018-12-03T03:49:52.164Z,0.00
2018-12-03T03:50:52.160Z,0.00
2018-12-03T03:51:52.145Z,0.00
2018-12-03T03:52:52.125Z,0.00
2018-12-03T03:53:52.398Z,0.00
2018-12-03T03:54:52.104Z,0.00
2018-12-03T03:55:52.113Z,0.00
2018-12-03T03:56:52.083Z,0.00
2018-12-03T03:57:52.073Z,0.00
2018-12-03T03:58:52.066Z,0.00
2018-12-03T03:59:52.162Z,0.00
2018-12-03T04:00:52.048Z,0.00
2018-12-03T04:01:52.031Z,0.00
2018-12-03T04:02:52.075Z,0.00
2018-12-03T04:03:52.015Z,0.00
2018-12-03T04:04:52.925Z,0.00
2018-12-03T04:05:52.191Z,0.00
2018-12-03T04:06:51.985Z,0.00
2018-12-03T04:07:51.969Z,0.00
2018-12-03T04:08:51.960Z,0.00
2018-12-03T04:09:51.947Z,0.00
2018-12-03T04:10:51.938Z,0.00
2018-12-03T04:11:52.102Z,0.00
2018-12-03T04:12:51.922Z,0.00
2018-12-03T04:13:51.907Z,0.00
2018-12-03T04:14:51.895Z,0.00
2018-12-03T04:15:51.883Z,0.00
2018-12-03T04:16:51.871Z,0.00
2018-12-03T04:17:51.953Z,0.00
2018-12-03T04:18:51.845Z,0.00
2018-12-03T04:19:51.839Z,0.00
2018-12-03T04:20:51.828Z,0.00
2018-12-03T04:21:51.815Z,0.00
2018-12-03T04:22:51.804Z,0.00
2018-12-03T04:23:51.891Z,0.00
2018-12-03T04:24:51.783Z,0.00
2018-12-03T04:25:51.775Z,0.00
2018-12-03T04:26:51.764Z,0.00
2018-12-03T04:27:51.748Z,0.00
2018-12-03T04:28:51.747Z,0.00
2018-12-03T04:29:52.013Z,0.00
2018-12-03T04:30:51.723Z,0.00
2018-12-03T04:31:51.709Z,0.00
2018-12-03T04:32:51.695Z,0.00
2018-12-03T04:33:51.684Z,0.00
2018-12-03T04:34:51.675Z,0.00
2018-12-03T04:35:51.790Z,0.00
2018-12-03T04:36:51.657Z,0.00
2018-12-03T04:37:51.643Z,0.00
2018-12-03T04:38:51.639Z,0.00
2018-12-03T04:39:51.622Z,0.00
2018-12-03T04:40:51.621Z,0.00
2018-12-03T04:41:51.721Z,0.00
2018-12-03T04:42:51.589Z,0.00
2018-12-03T04:43:51.577Z,0.00
2018-12-03T04:44:51.566Z,0.00
2018-12-03T04:45:51.557Z,0.00
2018-12-03T04:46:51.549Z,0.00
2018-12-03T04:47:51.816Z,0.00
2018-12-03T04:48:51.589Z,0.00
2018-12-03T04:49:51.514Z,0.00
2018-12-03T04:50:51.506Z,0.00
2018-12-03T04:51:51.495Z,0.00
2018-12-03T04:52:51.506Z,0.00
2018-12-03T04:53:51.572Z,0.00
2018-12-03T04:54:51.461Z,0.00
2018-12-03T04:55:51.449Z,5.62
2018-12-03T04:56:51.437Z,5.62
2018-12-03T04:57:51.431Z,5.62
2018-12-03T04:58:51.415Z,5.62
2018-12-03T04:59:51.511Z,5.62
2018-12-03T05:00:51.394Z,5.62
2018-12-03T05:01:51.385Z,5.62
2018-12-03T05:02:51.373Z,5.62
2018-12-03T05:03:51.362Z,5.62
2018-12-03T05:04:51.351Z,5.62
2018-12-03T05:05:51.606Z,5.62
2018-12-03T05:06:51.700Z,5.62
2018-12-03T05:07:51.321Z,5.62
2018-12-03T05:08:51.311Z,5.62
2018-12-03T05:09:51.301Z,5.62
2018-12-03T05:10:51.290Z,5.62
2018-12-03T05:11:51.379Z,5.62
2018-12-03T05:12:51.274Z,5.62
2018-12-03T05:13:51.258Z,5.62
2018-12-03T05:14:51.244Z,5.62
2018-12-03T05:15:51.233Z,5.62
2018-12-03T05:16:51.228Z,5.62
2018-12-03T05:17:51.435Z,5.62
2018-12-03T05:18:51.207Z,5.62
2018-12-03T05:19:51.191Z,5.62
2018-12-03T05:20:51.181Z,5.62
2018-12-03T05:21:51.168Z,5.62
2018-12-03T05:22:51.159Z,5.62
2018-12-03T05:23:51.245Z,5.62
2018-12-03T05:24:51.138Z,5.62
2018-12-03T05:25:51.129Z,5.62
2018-12-03T05:26:51.127Z,5.62
2018-12-03T05:27:51.106Z,5.62
2018-12-03T05:28:51.094Z,5.62
2018-12-03T05:29:51.260Z,5.62
2018-12-03T05:30:51.074Z,5.62
2018-12-03T05:31:51.070Z,5.62
2018-12-03T05:32:51.060Z,5.62
2018-12-03T05:33:51.049Z,5.62
2018-12-03T05:34:51.035Z,5.62
2018-12-03T05:35:51.197Z,5.62
2018-12-03T05:36:51.037Z,5.62
2018-12-03T05:37:51.006Z,5.62
2018-12-03T05:38:51.003Z,5.62
2018-12-03T05:39:50.993Z,5.62
2018-12-03T05:40:50.970Z,5.62
2018-12-03T05:41:51.070Z,5.62
2018-12-03T05:42:50.949Z,5.62
2018-12-03T05:43:50.940Z,5.62
2018-12-03T05:44:50.964Z,5.62
2018-12-03T05:45:50.916Z,5.62
2018-12-03T05:46:50.912Z,5.62
2018-12-03T05:47:51.044Z,5.62
2018-12-03T05:48:50.889Z,5.62
2018-12-03T05:49:50.873Z,5.62
2018-12-03T05:50:50.870Z,5.62
2018-12-03T05:51:50.850Z,5.62
2018-12-03T05:52:50.844Z,11.25
2018-12-03T05:53:50.947Z,11.25
2018-12-03T05:54:50.821Z,11.25
2018-12-03T05:55:50.820Z,11.25
2018-12-03T05:56:50.796Z,16.88
2018-12-03T05:57:50.789Z,16.88
2018-12-03T05:58:50.773Z,16.88
2018-12-03T05:59:50.888Z,16.88
2018-12-03T06:00:50.754Z,16.88
2018-12-03T06:01:50.743Z,16.88
2018-12-03T06:02:50.743Z,16.88
2018-12-03T06:03:50.723Z,16.88
2018-12-03T06:04:50.715Z,22.50
2018-12-03T06:05:50.821Z,16.88
2018-12-03T06:06:50.694Z,16.88
2018-12-03T06:07:50.677Z,16.88
2018-12-03T06:08:50.667Z,16.88
2018-12-03T06:09:50.662Z,16.88
2018-12-03T06:10:50.646Z,16.88
2018-12-03T06:11:50.792Z,16.88
2018-12-03T06:12:50.630Z,22.50
2018-12-03T06:13:50.627Z,22.50
2018-12-03T06:14:50.611Z,22.50
2018-12-03T06:15:50.613Z,22.50
2018-12-03T06:16:50.587Z,22.50
2018-12-03T06:17:50.882Z,22.50
2018-12-03T06:18:50.588Z,22.50
2018-12-03T06:19:50.556Z,28.12
2018-12-03T06:20:50.555Z,28.12
2018-12-03T06:21:50.539Z,28.12
2018-12-03T06:22:50.529Z,28.12
2018-12-03T06:23:50.623Z,22.50
2018-12-03T06:24:50.514Z,22.50
2018-12-03T06:25:50.487Z,22.50
2018-12-03T06:26:50.481Z,22.50
2018-12-03T06:27:50.472Z,22.50
2018-12-03T06:28:50.463Z,22.50
2018-12-03T06:29:50.619Z,16.88
2018-12-03T06:30:50.437Z,16.88
2018-12-03T06:31:50.440Z,22.50
2018-12-03T06:32:50.414Z,22.50
2018-12-03T06:33:50.412Z,22.50
2018-12-03T06:34:50.412Z,28.12
2018-12-03T06:35:50.712Z,28.12
2018-12-03T06:36:50.391Z,33.75
2018-12-03T06:37:50.390Z,33.75
2018-12-03T06:38:50.369Z,33.75
2018-12-03T06:39:50.925Z,39.38
2018-12-03T06:40:50.337Z,39.38
2018-12-03T06:41:50.436Z,39.38
2018-12-03T06:42:50.316Z,39.38
2018-12-03T06:43:50.296Z,39.38
2018-12-03T06:44:50.296Z,39.38
2018-12-03T06:45:50.340Z,39.38
2018-12-03T06:46:50.268Z,45.00
2018-12-03T06:47:50.483Z,45.00
2018-12-03T06:48:51.262Z,45.00
2018-12-03T06:49:50.274Z,45.00
2018-12-03T06:50:50.238Z,45.00
2018-12-03T06:51:51.219Z,45.00
2018-12-03T06:52:50.281Z,45.00
2018-12-03T06:53:50.978Z,45.00
2018-12-03T06:54:50.203Z,45.00
2018-12-03T06:55:50.192Z,45.00
2018-12-03T06:56:50.946Z,45.00
2018-12-03T06:57:50.171Z,45.00
2018-12-03T06:58:50.160Z,45.00
2018-12-03T06:59:50.243Z,45.00
2018-12-03T07:00:50.161Z,50.62
2018-12-03T07:01:50.111Z,45.00
2018-12-03T07:02:50.098Z,39.38
2018-12-03T07:03:50.080Z,39.38
2018-12-03T07:04:50.158Z,39.38
2018-12-03T07:05:50.360Z,39.38
2018-12-03T07:06:50.931Z,45.00
2018-12-03T07:07:50.064Z,45.00
2018-12-03T07:08:50.036Z,45.00
2018-12-03T07:09:50.023Z,45.00
2018-12-03T07:10:50.018Z,45.00
2018-12-03T07:11:50.315Z,45.00
2018-12-03T07:12:49.997Z,45.00
2018-12-03T07:13:49.988Z,45.00
2018-12-03T07:14:49.962Z,50.62
2018-12-03T07:15:49.963Z,50.62
2018-12-03T07:16:49.982Z,50.62
2018-12-03T07:17:50.044Z,56.25
2018-12-03T07:18:49.936Z,50.62
2018-12-03T07:19:49.932Z,50.62
2018-12-03T07:20:49.915Z,45.00
2018-12-03T07:21:49.925Z,45.00
2018-12-03T07:22:49.899Z,45.00
2018-12-03T07:23:50.149Z,50.62
2018-12-03T07:24:49.869Z,45.00
2018-12-03T07:25:49.873Z,50.62
2018-12-03T07:26:49.846Z,50.62
2018-12-03T07:27:50.454Z,50.62
2018-12-03T07:28:49.940Z,50.62
2018-12-03T07:29:52.842Z,50.62
2018-12-03T07:30:49.830Z,56.25
2018-12-03T07:31:49.823Z,56.25
2018-12-03T07:32:49.799Z,56.25
2018-12-03T07:33:49.780Z,61.88
2018-12-03T07:34:49.758Z,61.88
2018-12-03T07:35:49.843Z,61.88
2018-12-03T07:36:49.738Z,61.88
2018-12-03T07:37:49.719Z,67.50
2018-12-03T07:38:49.709Z,67.50
2018-12-03T07:39:50.490Z,73.12
2018-12-03T07:40:49.723Z,73.12
2018-12-03T07:41:49.939Z,73.12
2018-12-03T07:42:49.665Z,73.12
2018-12-03T07:43:49.655Z,73.12
2018-12-03T07:44:49.643Z,67.50
2018-12-03T07:45:49.633Z,67.50
2018-12-03T07:46:49.626Z,61.88
2018-12-03T07:47:49.901Z,56.25
2018-12-03T07:48:49.601Z,61.88
2018-12-03T07:49:49.594Z,61.88
2018-12-03T07:50:49.577Z,56.25
2018-12-03T07:51:49.566Z,56.25
2018-12-03T07:52:49.557Z,56.25
2018-12-03T07:53:49.636Z,56.25
2018-12-03T07:54:49.535Z,56.25
2018-12-03T07:55:49.521Z,50.62
2018-12-03T07:56:49.508Z,50.62
2018-12-03T07:57:49.499Z,50.62
2018-12-03T07:58:49.487Z,50.62
2018-12-03T07:59:49.589Z,45.00
2018-12-03T08:00:49.469Z,45.00
2018-12-03T08:01:49.458Z,45.00
2018-12-03T08:02:49.447Z,45.00
2018-12-03T08:03:49.437Z,50.62
2018-12-03T08:04:49.430Z,50.62
2018-12-03T08:05:49.579Z,56.25
2018-12-03T08:06:49.410Z,56.25
2018-12-03T08:07:49.392Z,50.62
2018-12-03T08:08:49.383Z,50.62
2018-12-03T08:09:49.371Z,50.62
2018-12-03T08:10:49.371Z,50.62
2018-12-03T08:11:49.444Z,45.00
2018-12-03T08:12:49.338Z,45.00
2018-12-03T08:13:49.332Z,45.00
2018-12-03T08:14:49.317Z,50.62
2018-12-03T08:15:49.306Z,56.25
2018-12-03T08:16:49.295Z,45.00
2018-12-03T08:17:49.380Z,45.00
2018-12-03T08:18:49.273Z,50.62
2018-12-03T08:19:49.264Z,61.88
2018-12-03T08:20:49.253Z,73.12
2018-12-03T08:21:49.243Z,78.75
2018-12-03T08:22:49.230Z,84.38
2018-12-03T08:23:49.599Z,84.38
2018-12-03T08:24:49.208Z,84.38
2018-12-03T08:25:49.199Z,84.38
2018-12-03T08:26:49.191Z,84.38
2018-12-03T08:27:49.173Z,84.38
2018-12-03T08:28:49.174Z,78.75
2018-12-03T08:29:49.247Z,78.75
2018-12-03T08:30:49.146Z,78.75
2018-12-03T08:31:49.134Z,78.75
2018-12-03T08:32:49.122Z,78.75
2018-12-03T08:33:49.141Z,78.75
2018-12-03T08:34:49.107Z,73.12
2018-12-03T08:35:49.202Z,73.12
2018-12-03T08:36:49.076Z,78.75
2018-12-03T08:37:49.071Z,78.75
2018-12-03T08:38:49.056Z,84.38
2018-12-03T08:39:49.818Z,84.38
2018-12-03T08:40:49.040Z,90.00
2018-12-03T08:41:49.196Z,90.00
2018-12-03T08:42:49.028Z,90.00
2018-12-03T08:43:49.004Z,84.38
2018-12-03T08:44:48.989Z,84.38
2018-12-03T08:45:48.981Z,78.75
2018-12-03T08:46:49.007Z,78.75
2018-12-03T08:47:49.090Z,73.12
2018-12-03T08:48:48.945Z,73.12
2018-12-03T08:49:48.936Z,73.12
2018-12-03T08:50:48.930Z,73.12
2018-12-03T08:51:48.920Z,78.75
2018-12-03T08:52:48.907Z,84.38
2018-12-03T08:53:49.022Z,84.38
2018-12-03T08:54:48.887Z,90.00
2018-12-03T08:55:48.879Z,90.00
2018-12-03T08:56:48.863Z,90.00
2018-12-03T08:57:48.853Z,90.00
2018-12-03T08:58:48.842Z,84.38
2018-12-03T08:59:48.927Z,90.00
2018-12-03T09:00:48.824Z,78.75
2018-12-03T09:01:48.812Z,56.25
2018-12-03T09:02:48.798Z,61.88
2018-12-03T09:03:48.790Z,56.25
2018-12-03T09:04:48.777Z,56.25
2018-12-03T09:05:48.923Z,56.25
2018-12-03T09:06:48.758Z,56.25
2018-12-03T09:07:48.745Z,61.88
2018-12-03T09:08:48.735Z,78.75
2018-12-03T09:09:48.725Z,84.38
2018-12-03T09:10:48.715Z,84.38
2018-12-03T09:11:48.810Z,84.38
2018-12-03T09:12:48.690Z,84.38
2018-12-03T09:13:48.679Z,78.75
2018-12-03T09:14:48.671Z,78.75
2018-12-03T09:15:48.660Z,73.12
2018-12-03T09:16:48.648Z,84.38
2018-12-03T09:17:48.794Z,78.75
2018-12-03T09:18:48.636Z,90.00
2018-12-03T09:19:48.614Z,90.00
2018-12-03T09:20:48.605Z,84.38
2018-12-03T09:21:48.597Z,78.75
2018-12-03T09:22:48.634Z,67.50
2018-12-03T09:23:48.686Z,67.50
2018-12-03T09:24:48.561Z,61.88
2018-12-03T09:25:48.550Z,56.25
2018-12-03T09:26:48.540Z,56.25
2018-12-03T09:27:48.580Z,56.25
2018-12-03T09:28:48.520Z,56.25
2018-12-03T09:29:48.665Z,56.25
2018-12-03T09:30:48.496Z,56.25
2018-12-03T09:31:48.485Z,56.25
2018-12-03T09:32:48.475Z,56.25
2018-12-03T09:33:48.466Z,56.25
2018-12-03T09:34:48.454Z,50.62
2018-12-03T09:35:48.571Z,50.62
2018-12-03T09:36:48.432Z,50.62
2018-12-03T09:37:48.421Z,45.00
2018-12-03T09:38:48.411Z,45.00
2018-12-03T09:39:48.400Z,45.00
2018-12-03T09:40:48.388Z,45.00
2018-12-03T09:41:48.598Z,45.00
2018-12-03T09:42:48.367Z,50.62
2018-12-03T09:43:48.357Z,50.62
2018-12-03T09:44:48.345Z,50.62
2018-12-03T09:45:48.335Z,50.62
2018-12-03T09:46:48.324Z,45.00
2018-12-03T09:47:48.418Z,50.62
2018-12-03T09:48:48.304Z,50.62
2018-12-03T09:49:48.299Z,50.62
2018-12-03T09:50:48.281Z,61.88
2018-12-03T09:51:48.272Z,84.38
2018-12-03T09:52:48.259Z,90.00
2018-12-03T09:53:48.358Z,90.00
2018-12-03T09:54:48.239Z,95.62
2018-12-03T09:55:48.229Z,84.38
2018-12-03T09:56:48.221Z,90.00
2018-12-03T09:57:48.206Z,78.75
2018-12-03T09:58:48.197Z,95.62
2018-12-03T09:59:48.460Z,101.25
2018-12-03T10:00:48.173Z,101.25
2018-12-03T10:01:48.163Z,101.25
2018-12-03T10:02:48.151Z,95.62
2018-12-03T10:03:48.143Z,67.50
2018-12-03T10:04:48.130Z,61.88
2018-12-03T10:05:48.214Z,67.50
2018-12-03T10:06:48.109Z,61.88
2018-12-03T10:07:48.101Z,56.25
2018-12-03T10:08:48.082Z,56.25
2018-12-03T10:09:48.077Z,50.62
2018-12-03T10:10:48.061Z,50.62
2018-12-03T10:11:48.255Z,45.00
2018-12-03T10:12:48.040Z,50.62
2018-12-03T10:13:48.033Z,50.62
2018-12-03T10:14:48.025Z,50.62
2018-12-03T10:15:48.012Z,56.25
2018-12-03T10:16:47.997Z,73.12
2018-12-03T10:17:48.084Z,90.00
2018-12-03T10:18:47.975Z,90.00
2018-12-03T10:19:47.978Z,78.75
2018-12-03T10:20:47.960Z,106.88
2018-12-03T10:21:47.951Z,106.88
2018-12-03T10:22:47.936Z,84.38
2018-12-03T10:23:48.025Z,73.12
2018-12-03T10:24:47.914Z,56.25
2018-12-03T10:25:47.905Z,56.25
2018-12-03T10:26:47.891Z,61.88
2018-12-03T10:27:47.882Z,56.25
2018-12-03T10:28:47.871Z,84.38
2018-12-03T10:29:48.163Z,90.00
2018-12-03T10:30:47.852Z,84.38
2018-12-03T10:31:47.838Z,61.88
2018-12-03T10:32:47.831Z,56.25
2018-12-03T10:33:47.817Z,61.88
2018-12-03T10:34:47.823Z,61.88
2018-12-03T10:35:48.071Z,67.50
2018-12-03T10:36:47.786Z,50.62
2018-12-03T10:37:47.774Z,50.62
2018-12-03T10:38:47.764Z,56.25
2018-12-03T10:39:47.779Z,61.88
2018-12-03T10:40:47.742Z,73.12
2018-12-03T10:41:48.067Z,101.25
2018-12-03T10:42:47.718Z,106.88
2018-12-03T10:43:47.710Z,112.50
2018-12-03T10:44:47.701Z,112.50
2018-12-03T10:45:47.689Z,112.50
2018-12-03T10:46:47.680Z,112.50
2018-12-03T10:47:47.794Z,112.50
2018-12-03T10:48:47.656Z,112.50
2018-12-03T10:49:47.645Z,112.50
2018-12-03T10:50:47.640Z,112.50
2018-12-03T10:51:47.626Z,112.50
2018-12-03T10:52:47.614Z,112.50
2018-12-03T10:53:47.755Z,112.50
2018-12-03T10:54:47.598Z,118.12
2018-12-03T10:55:47.585Z,112.50
2018-12-03T10:56:47.578Z,112.50
2018-12-03T10:57:47.560Z,112.50
2018-12-03T10:58:47.552Z,112.50
2018-12-03T10:59:47.641Z,112.50
2018-12-03T11:00:47.528Z,112.50
2018-12-03T11:01:47.549Z,112.50
2018-12-03T11:02:47.533Z,112.50
2018-12-03T11:03:47.496Z,112.50
2018-12-03T11:04:47.485Z,112.50
2018-12-03T11:05:47.604Z,112.50
2018-12-03T11:06:47.470Z,118.12
2018-12-03T11:07:47.455Z,118.12
2018-12-03T11:08:47.444Z,118.12
2018-12-03T11:09:47.436Z,118.12
2018-12-03T11:10:47.423Z,118.12
2018-12-03T11:11:47.714Z,123.75
2018-12-03T11:12:47.401Z,129.38
2018-12-03T11:13:47.392Z,129.38
2018-12-03T11:14:47.381Z,123.75
2018-12-03T11:15:47.370Z,146.25
2018-12-03T11:16:47.358Z,151.88
2018-12-03T11:17:47.475Z,129.38
2018-12-03T11:18:47.342Z,146.25
2018-12-03T11:19:47.327Z,151.88
2018-12-03T11:20:47.317Z,123.75
2018-12-03T11:21:47.307Z,140.62
2018-12-03T11:22:47.297Z,123.75
2018-12-03T11:23:47.389Z,151.88
2018-12-03T11:24:47.293Z,135.00
2018-12-03T11:25:47.272Z,123.75
2018-12-03T11:26:47.260Z,106.88
2018-12-03T11:27:47.242Z,101.25
2018-12-03T11:28:47.234Z,106.88
2018-12-03T11:29:47.334Z,151.88
2018-12-03T11:30:47.218Z,163.12
2018-12-03T11:31:47.203Z,129.38
2018-12-03T11:32:47.190Z,146.25
2018-12-03T11:33:47.181Z,106.88
2018-12-03T11:34:47.170Z,84.38
2018-12-03T11:35:47.410Z,84.38
2018-12-03T11:36:47.148Z,84.38
2018-12-03T11:37:47.144Z,84.38
2018-12-03T11:38:47.130Z,95.62
2018-12-03T11:39:47.121Z,101.25
2018-12-03T11:40:47.120Z,112.50
2018-12-03T11:41:47.199Z,112.50
2018-12-03T11:42:47.121Z,151.88
2018-12-03T11:43:47.096Z,123.75
2018-12-03T11:44:47.065Z,157.50
2018-12-03T11:45:47.055Z,151.88
2018-12-03T11:46:47.057Z,151.88
2018-12-03T11:47:47.193Z,151.88
2018-12-03T11:48:47.049Z,157.50
2018-12-03T11:49:47.011Z,151.88
2018-12-03T11:50:47.003Z,157.50
2018-12-03T11:51:46.992Z,140.62
2018-12-03T11:52:46.981Z,157.50
2018-12-03T11:53:47.066Z,151.88
2018-12-03T11:54:46.990Z,157.50
2018-12-03T11:55:46.953Z,151.88
2018-12-03T11:56:46.940Z,151.88
2018-12-03T11:57:46.928Z,151.88
2018-12-03T11:58:46.919Z,151.88
2018-12-03T11:59:47.040Z,151.88
2018-12-03T12:00:46.896Z,157.50
2018-12-03T12:01:46.891Z,163.12
2018-12-03T12:02:46.878Z,163.12
2018-12-03T12:03:46.866Z,163.12
2018-12-03T12:04:46.865Z,163.12
2018-12-03T12:05:47.168Z,157.50
2018-12-03T12:06:46.835Z,157.50
2018-12-03T12:07:46.830Z,157.50
2018-12-03T12:08:46.813Z,157.50
2018-12-03T12:09:46.803Z,157.50
2018-12-03T12:10:46.794Z,157.50
2018-12-03T12:11:46.934Z,157.50
2018-12-03T12:12:46.785Z,163.12
2018-12-03T12:13:46.781Z,163.12
2018-12-03T12:14:46.756Z,168.75
2018-12-03T12:15:46.743Z,168.75
2018-12-03T12:16:46.732Z,168.75
2018-12-03T12:17:46.817Z,168.75
2018-12-03T12:18:46.723Z,168.75
2018-12-03T12:19:46.699Z,174.38
2018-12-03T12:20:46.690Z,168.75
2018-12-03T12:21:46.727Z,174.38
2018-12-03T12:22:46.670Z,168.75
2018-12-03T12:23:47.017Z,168.75
2018-12-03T12:24:46.654Z,168.75
2018-12-03T12:25:46.652Z,140.62
2018-12-03T12:26:46.629Z,118.12
2018-12-03T12:27:46.619Z,168.75
2018-12-03T12:28:46.641Z,168.75
2018-12-03T12:29:46.693Z,163.12
2018-12-03T12:30:46.590Z,180.00
2018-12-03T12:31:46.578Z,180.00
2018-12-03T12:32:46.565Z,180.00
2018-12-03T12:33:46.558Z,185.62
2018-12-03T12:34:46.555Z,185.62
2018-12-03T12:35:46.697Z,185.62
2018-12-03T12:36:46.522Z,185.62
2018-12-03T12:37:46.510Z,185.62
2018-12-03T12:38:46.505Z,185.62
2018-12-03T12:39:46.497Z,185.62
2018-12-03T12:40:46.481Z,185.62
2018-12-03T12:41:46.868Z,191.25
2018-12-03T12:42:46.530Z,191.25
2018-12-03T12:43:46.455Z,191.25
2018-12-03T12:44:46.442Z,191.25
2018-12-03T12:45:46.432Z,191.25
2018-12-03T12:46:46.421Z,191.25
2018-12-03T12:47:46.511Z,196.88
2018-12-03T12:48:46.400Z,196.88
2018-12-03T12:49:46.393Z,196.88
2018-12-03T12:50:46.375Z,196.88
2018-12-03T12:51:51.434Z,180.00
2018-12-03T12:52:47.972Z,168.75
2018-12-03T12:53:46.349Z,157.50
2018-12-03T12:54:46.337Z,140.62
2018-12-03T12:55:46.329Z,129.38
2018-12-03T12:56:46.319Z,123.75
2018-12-03T12:57:46.307Z,118.12
2018-12-03T12:58:46.483Z,112.50
2018-12-03T12:59:46.285Z,112.50